sensor_id;sensor_type;location;lat;lon;timestamp;pressure;altitude;pressure_sealevel;temperature;humidity
13015;BME280;6573;57.696;11.950;2023-03-18T00:01:26;100691.66;;;11.19;100.00
13015;BME280;6573;57.696;11.950;2023-03-18T00:03:55;100682.84;;;11.26;100.00
13015;BME280;6573;57.696;11.950;2023-03-18T00:06:24;100689.00;;;11.22;100.00
13015;BME280;6573;57.696;11.950;2023-03-18T00:08:52;100688.81;;;11.48;100.00
13015;BME280;6573;57.696;11.950;2023-03-18T00:11:22;100703.81;;;11.38;100.00
13015;BME280;6573;57.696;11.950;2023-03-18T00:13:52;100702.06;;;11.34;100.00
13015;BME280;6573;57.696;11.950;2023-03-18T00:16:21;100699.50;;;11.27;100.00
13015;BME280;6573;57.696;11.950;2023-03-18T00:18:52;100677.53;;;11.29;100.00
13015;BME280;6573;57.696;11.950;2023-03-18T00:21:20;100660.00;;;11.27;100.00
13015;BME280;6573;57.696;11.950;2023-03-18T00:23:49;100691.50;;;11.40;100.00
13015;BME280;6573;57.696;11.950;2023-03-18T00:26:23;100695.97;;;11.29;100.00
13015;BME280;6573;57.696;11.950;2023-03-18T00:28:53;100672.31;;;11.26;100.00
13015;BME280;6573;57.696;11.950;2023-03-18T00:31:24;100683.66;;;11.33;100.00
13015;BME280;6573;57.696;11.950;2023-03-18T00:33:55;100676.66;;;11.33;100.00
13015;BME280;6573;57.696;11.950;2023-03-18T00:36:23;100665.16;;;11.40;100.00
13015;BME280;6573;57.696;11.950;2023-03-18T00:38:53;100673.16;;;11.27;100.00
13015;BME280;6573;57.696;11.950;2023-03-18T00:41:24;100665.22;;;11.34;100.00
13015;BME280;6573;57.696;11.950;2023-03-18T00:43:54;100678.38;;;11.36;100.00
13015;BME280;6573;57.696;11.950;2023-03-18T00:46:24;100673.03;;;11.42;100.00
13015;BME280;6573;57.696;11.950;2023-03-18T00:48:56;100674.94;;;11.28;100.00
13015;BME280;6573;57.696;11.950;2023-03-18T00:51:27;100684.69;;;11.15;100.00
13015;BME280;6573;57.696;11.950;2023-03-18T00:53:58;100675.91;;;11.16;100.00
13015;BME280;6573;57.696;11.950;2023-03-18T00:56:30;100682.84;;;11.26;100.00
13015;BME280;6573;57.696;11.950;2023-03-18T00:58:59;100672.38;;;11.14;100.00
13015;BME280;6573;57.696;11.950;2023-03-18T01:01:28;100684.56;;;11.30;100.00
13015;BME280;6573;57.696;11.950;2023-03-18T01:03:58;100690.72;;;11.31;100.00
13015;BME280;6573;57.696;11.950;2023-03-18T01:06:30;100686.25;;;11.37;100.00
13015;BME280;6573;57.696;11.950;2023-03-18T01:09:00;100677.41;;;11.47;100.00
13015;BME280;6573;57.696;11.950;2023-03-18T01:11:29;100682.78;;;11.35;100.00
13015;BME280;6573;57.696;11.950;2023-03-18T01:13:59;100666.94;;;11.38;100.00
13015;BME280;6573;57.696;11.950;2023-03-18T01:16:27;100658.22;;;11.33;100.00
13015;BME280;6573;57.696;11.950;2023-03-18T01:18:58;100672.13;;;11.47;100.00
13015;BME280;6573;57.696;11.950;2023-03-18T01:21:27;100664.31;;;11.38;100.00
13015;BME280;6573;57.696;11.950;2023-03-18T01:23:55;100682.69;;;11.41;100.00
13015;BME280;6573;57.696;11.950;2023-03-18T01:26:23;100675.72;;;11.37;100.00
13015;BME280;6573;57.696;11.950;2023-03-18T01:28:52;100665.31;;;11.22;100.00
13015;BME280;6573;57.696;11.950;2023-03-18T01:31:20;100655.69;;;11.17;100.00
13015;BME280;6573;57.696;11.950;2023-03-18T01:33:50;100661.75;;;11.29;100.00
13015;BME280;6573;57.696;11.950;2023-03-18T01:36:20;100656.56;;;11.20;100.00
13015;BME280;6573;57.696;11.950;2023-03-18T01:38:48;100658.38;;;11.12;100.00
13015;BME280;6573;57.696;11.950;2023-03-18T01:41:17;100669.75;;;11.14;100.00
13015;BME280;6573;57.696;11.950;2023-03-18T01:43:46;100679.44;;;11.09;100.00
13015;BME280;6573;57.696;11.950;2023-03-18T01:46:32;100678.59;;;11.05;100.00
13015;BME280;6573;57.696;11.950;2023-03-18T01:49:05;100686.34;;;11.28;100.00
13015;BME280;6573;57.696;11.950;2023-03-18T01:51:35;100681.06;;;11.28;100.00
13015;BME280;6573;57.696;11.950;2023-03-18T01:54:05;100674.13;;;11.21;100.00
13015;BME280;6573;57.696;11.950;2023-03-18T01:56:36;100674.16;;;11.15;100.00
13015;BME280;6573;57.696;11.950;2023-03-18T01:59:07;100668.81;;;11.24;100.00
13015;BME280;6573;57.696;11.950;2023-03-18T02:01:40;100668.81;;;11.24;100.00
13015;BME280;6573;57.696;11.950;2023-03-18T02:04:10;100660.16;;;11.10;100.00
13015;BME280;6573;57.696;11.950;2023-03-18T02:06:40;100660.13;;;11.16;100.00
13015;BME280;6573;57.696;11.950;2023-03-18T02:09:09;100647.81;;;11.15;100.00
13015;BME280;6573;57.696;11.950;2023-03-18T02:11:41;100651.41;;;11.05;100.00
13015;BME280;6573;57.696;11.950;2023-03-18T02:14:12;100660.25;;;10.92;100.00
13015;BME280;6573;57.696;11.950;2023-03-18T02:16:44;100670.69;;;11.07;100.00
13015;BME280;6573;57.696;11.950;2023-03-18T02:19:25;100654.88;;;11.13;100.00
13015;BME280;6573;57.696;11.950;2023-03-18T02:24:49;100659.31;;;11.02;100.00
13015;BME280;6573;57.696;11.950;2023-03-18T02:27:21;100648.88;;;10.91;100.00
13015;BME280;6573;57.696;11.950;2023-03-18T02:29:54;100647.06;;;10.98;100.00
13015;BME280;6573;57.696;11.950;2023-03-18T02:32:26;100660.16;;;11.07;100.00
13015;BME280;6573;57.696;11.950;2023-03-18T02:34:56;100651.31;;;11.14;100.00
13015;BME280;6573;57.696;11.950;2023-03-18T02:37:27;100656.66;;;11.08;100.00
13015;BME280;6573;57.696;11.950;2023-03-18T02:40:01;100667.06;;;11.23;100.00
13015;BME280;6573;57.696;11.950;2023-03-18T02:42:39;100663.50;;;11.27;100.00
13015;BME280;6573;57.696;11.950;2023-03-18T02:45:15;100660.03;;;11.25;100.00
13015;BME280;6573;57.696;11.950;2023-03-18T02:47:47;100662.66;;;11.25;100.00
13015;BME280;6573;57.696;11.950;2023-03-18T02:50:17;100663.50;;;11.30;100.00
13015;BME280;6573;57.696;11.950;2023-03-18T02:52:48;100655.63;;;11.29;100.00
13015;BME280;6573;57.696;11.950;2023-03-18T02:55:16;100660.06;;;11.19;100.00
13015;BME280;6573;57.696;11.950;2023-03-18T02:57:46;100662.72;;;11.18;100.00
13015;BME280;6573;57.696;11.950;2023-03-18T03:00:15;100654.75;;;11.25;100.00
13015;BME280;6573;57.696;11.950;2023-03-18T03:02:44;100649.47;;;11.28;100.00
13015;BME280;6573;57.696;11.950;2023-03-18T03:05:12;100644.25;;;11.22;100.00
13015;BME280;6573;57.696;11.950;2023-03-18T03:07:41;100642.44;;;11.27;100.00
13015;BME280;6573;57.696;11.950;2023-03-18T03:10:10;100616.22;;;11.18;100.00
13015;BME280;6573;57.696;11.950;2023-03-18T03:12:39;100640.84;;;11.11;100.00
13015;BME280;6573;57.696;11.950;2023-03-18T03:15:09;100633.78;;;11.16;100.00
13015;BME280;6573;57.696;11.950;2023-03-18T03:17:38;100633.72;;;11.22;100.00
13015;BME280;6573;57.696;11.950;2023-03-18T03:20:08;100640.72;;;11.26;100.00
13015;BME280;6573;57.696;11.950;2023-03-18T03:22:37;100642.53;;;11.17;100.00
13015;BME280;6573;57.696;11.950;2023-03-18T03:25:06;100627.72;;;11.02;100.00
13015;BME280;6573;57.696;11.950;2023-03-18T03:27:35;100633.81;;;11.13;100.00
13015;BME280;6573;57.696;11.950;2023-03-18T03:30:06;100617.94;;;11.19;100.00
13015;BME280;6573;57.696;11.950;2023-03-18T03:32:37;100633.69;;;11.28;100.00
13015;BME280;6573;57.696;11.950;2023-03-18T03:35:06;100637.28;;;11.18;100.00
13015;BME280;6573;57.696;11.950;2023-03-18T03:37:35;100628.47;;;11.19;100.00
13015;BME280;6573;57.696;11.950;2023-03-18T03:40:04;100632.06;;;11.09;100.00
13015;BME280;6573;57.696;11.950;2023-03-18T03:42:34;100628.69;;;10.92;100.00
13015;BME280;6573;57.696;11.950;2023-03-18T03:45:03;100626.06;;;10.93;100.00
13015;BME280;6573;57.696;11.950;2023-03-18T03:47:35;100626.06;;;10.92;100.00
13015;BME280;6573;57.696;11.950;2023-03-18T03:50:04;100636.59;;;10.90;100.00
13015;BME280;6573;57.696;11.950;2023-03-18T03:52:32;100637.56;;;10.74;100.00
13015;BME280;6573;57.696;11.950;2023-03-18T03:55:01;100632.34;;;10.67;100.00
13015;BME280;6573;57.696;11.950;2023-03-18T03:57:29;100643.75;;;10.67;100.00
13015;BME280;6573;57.696;11.950;2023-03-18T03:59:58;100644.63;;;10.71;100.00
13015;BME280;6573;57.696;11.950;2023-03-18T04:02:27;100639.38;;;10.71;100.00
13015;BME280;6573;57.696;11.950;2023-03-18T04:04:57;100641.94;;;10.78;100.00
13015;BME280;6573;57.696;11.950;2023-03-18T04:07:25;100642.78;;;10.82;100.00
13015;BME280;6573;57.696;11.950;2023-03-18T04:09:54;100646.31;;;10.81;100.00
13015;BME280;6573;57.696;11.950;2023-03-18T04:12:22;100642.84;;;10.79;100.00
13015;BME280;6573;57.696;11.950;2023-03-18T04:14:51;100634.13;;;10.65;100.00
13015;BME280;6573;57.696;11.950;2023-03-18T04:17:22;100634.09;;;10.71;100.00
13015;BME280;6573;57.696;11.950;2023-03-18T04:19:51;100632.34;;;10.73;100.00
13015;BME280;6573;57.696;11.950;2023-03-18T04:22:20;100630.53;;;10.81;100.00
13015;BME280;6573;57.696;11.950;2023-03-18T04:24:50;100623.59;;;10.68;100.00
13015;BME280;6573;57.696;11.950;2023-03-18T04:27:18;100618.31;;;10.71;100.00
13015;BME280;6573;57.696;11.950;2023-03-18T04:29:48;100621.69;;;10.91;100.00
13015;BME280;6573;57.696;11.950;2023-03-18T04:32:16;100621.81;;;10.76;100.00
13015;BME280;6573;57.696;11.950;2023-03-18T04:34:45;100616.56;;;10.73;100.00
13015;BME280;6573;57.696;11.950;2023-03-18T04:37:13;100622.75;;;10.60;100.00
13015;BME280;6573;57.696;11.950;2023-03-18T04:39:47;100614.84;;;10.69;100.00
13015;BME280;6573;57.696;11.950;2023-03-18T04:42:15;100625.38;;;10.63;100.00
13015;BME280;6573;57.696;11.950;2023-03-18T04:44:44;100613.19;;;10.50;100.00
13015;BME280;6573;57.696;11.950;2023-03-18T04:47:12;100607.03;;;10.51;100.00
13015;BME280;6573;57.696;11.950;2023-03-18T04:49:41;100609.66;;;10.54;100.00
13015;BME280;6573;57.696;11.950;2023-03-18T04:52:09;100609.69;;;10.48;100.00
13015;BME280;6573;57.696;11.950;2023-03-18T04:54:38;100614.13;;;10.38;100.00
13015;BME280;6573;57.696;11.950;2023-03-18T04:57:10;100615.88;;;10.39;100.00
13015;BME280;6573;57.696;11.950;2023-03-18T04:59:38;100623.75;;;10.44;100.00
13015;BME280;6573;57.696;11.950;2023-03-18T05:02:08;100620.16;;;10.58;100.00
13015;BME280;6573;57.696;11.950;2023-03-18T05:04:36;100627.22;;;10.52;100.00
13015;BME280;6573;57.696;11.950;2023-03-18T05:07:05;100625.34;;;10.67;100.00
13015;BME280;6573;57.696;11.950;2023-03-18T05:09:33;100625.34;;;10.69;100.00
13015;BME280;6573;57.696;11.950;2023-03-18T05:12:02;100630.50;;;10.82;100.00
13015;BME280;6573;57.696;11.950;2023-03-18T05:14:31;100630.38;;;10.99;100.00
13015;BME280;6573;57.696;11.950;2023-03-18T05:17:00;100626.88;;;11.00;100.00
13015;BME280;6573;57.696;11.950;2023-03-18T05:19:30;100625.09;;;11.02;100.00
13015;BME280;6573;57.696;11.950;2023-03-18T05:21:59;100623.47;;;10.86;100.00
13015;BME280;6573;57.696;11.950;2023-03-18T05:24:32;100627.03;;;10.80;100.00
13015;BME280;6573;57.696;11.950;2023-03-18T05:27:00;100630.56;;;10.75;100.00
13015;BME280;6573;57.696;11.950;2023-03-18T05:29:30;100624.44;;;10.76;100.00
13015;BME280;6573;57.696;11.950;2023-03-18T05:31:59;100608.59;;;10.80;100.00
13015;BME280;6573;57.696;11.950;2023-03-18T05:34:27;100635.81;;;10.78;100.00
13015;BME280;6573;57.696;11.950;2023-03-18T05:36:58;100635.81;;;10.78;100.00
13015;BME280;6573;57.696;11.950;2023-03-18T05:39:26;100623.66;;;10.62;100.00
13015;BME280;6573;57.696;11.950;2023-03-18T05:41:55;100634.97;;;10.73;100.00
13015;BME280;6573;57.696;11.950;2023-03-18T05:44:24;100613.16;;;10.53;100.00
13015;BME280;6573;57.696;11.950;2023-03-18T05:46:54;100619.38;;;10.39;100.00
13015;BME280;6573;57.696;11.950;2023-03-18T05:49:23;100611.53;;;10.30;100.00
13015;BME280;6573;57.696;11.950;2023-03-18T05:51:53;100626.41;;;10.36;100.00
13015;BME280;6573;57.696;11.950;2023-03-18T05:54:22;100616.72;;;10.39;100.00
13015;BME280;6573;57.696;11.950;2023-03-18T05:56:52;100626.38;;;10.44;100.00
13015;BME280;6573;57.696;11.950;2023-03-18T05:59:21;100625.47;;;10.48;100.00
13015;BME280;6573;57.696;11.950;2023-03-18T06:01:54;100635.91;;;10.64;100.00
13015;BME280;6573;57.696;11.950;2023-03-18T06:04:23;100618.38;;;10.62;100.00
13015;BME280;6573;57.696;11.950;2023-03-18T06:06:52;100627.03;;;10.79;100.00
13015;BME280;6573;57.696;11.950;2023-03-18T06:09:21;100635.97;;;10.48;100.00
13015;BME280;6573;57.696;11.950;2023-03-18T06:11:49;100622.00;;;10.43;100.00
13015;BME280;6573;57.696;11.950;2023-03-18T06:14:17;100635.16;;;10.44;100.00
13015;BME280;6573;57.696;11.950;2023-03-18T06:16:46;100621.97;;;10.46;100.00
13015;BME280;6573;57.696;11.950;2023-03-18T06:19:16;100634.25;;;10.47;100.00
13015;BME280;6573;57.696;11.950;2023-03-18T06:21:45;100639.47;;;10.50;100.00
13015;BME280;6573;57.696;11.950;2023-03-18T06:24:13;100633.34;;;10.51;100.00
13015;BME280;6573;57.696;11.950;2023-03-18T06:26:41;100629.84;;;10.47;100.00
13015;BME280;6573;57.696;11.950;2023-03-18T06:29:10;100646.44;;;10.60;100.00
13015;BME280;6573;57.696;11.950;2023-03-18T06:31:38;100642.09;;;10.53;100.00
13015;BME280;6573;57.696;11.950;2023-03-18T06:34:07;100648.19;;;10.58;100.00
13015;BME280;6573;57.696;11.950;2023-03-18T06:36:36;100639.53;;;10.40;100.00
13015;BME280;6573;57.696;11.950;2023-03-18T06:39:05;100652.63;;;10.50;100.00
13015;BME280;6573;57.696;11.950;2023-03-18T06:41:33;100653.56;;;10.39;100.00
13015;BME280;6573;57.696;11.950;2023-03-18T06:44:02;100653.53;;;10.49;100.00
13015;BME280;6573;57.696;11.950;2023-03-18T06:46:31;100656.19;;;10.41;100.00
13015;BME280;6573;57.696;11.950;2023-03-18T06:48:59;100656.19;;;10.38;100.00
13015;BME280;6573;57.696;11.950;2023-03-18T06:51:27;100665.81;;;10.47;100.00
13015;BME280;6573;57.696;11.950;2023-03-18T06:53:57;100660.44;;;10.68;100.00
13015;BME280;6573;57.696;11.950;2023-03-18T06:56:26;100665.75;;;10.53;100.00
13015;BME280;6573;57.696;11.950;2023-03-18T06:58:54;100670.97;;;10.65;100.00
13015;BME280;6573;57.696;11.950;2023-03-18T07:01:23;100670.94;;;10.74;100.00
13015;BME280;6573;57.696;11.950;2023-03-18T07:03:52;100672.66;;;10.78;100.00
13015;BME280;6573;57.696;11.950;2023-03-18T07:06:21;100676.19;;;10.74;100.00
13015;BME280;6573;57.696;11.950;2023-03-18T07:08:50;100676.19;;;10.71;100.00
13015;BME280;6573;57.696;11.950;2023-03-18T07:11:20;100670.09;;;10.66;100.00
13015;BME280;6573;57.696;11.950;2023-03-18T07:13:48;100669.19;;;10.70;100.00
13015;BME280;6573;57.696;11.950;2023-03-18T07:16:17;100677.09;;;10.65;100.00
13015;BME280;6573;57.696;11.950;2023-03-18T07:18:46;100676.22;;;10.68;100.00
13015;BME280;6573;57.696;11.950;2023-03-18T07:21:14;100676.19;;;10.74;100.00
13015;BME280;6573;57.696;11.950;2023-03-18T07:23:43;100679.69;;;10.70;100.00
13015;BME280;6573;57.696;11.950;2023-03-18T07:26:12;100670.97;;;10.65;100.00
13015;BME280;6573;57.696;11.950;2023-03-18T07:28:41;100677.06;;;10.70;100.00
13015;BME280;6573;57.696;11.950;2023-03-18T07:31:10;100671.81;;;10.70;100.00
13015;BME280;6573;57.696;11.950;2023-03-18T07:33:38;100672.72;;;10.69;100.00
13015;BME280;6573;57.696;11.950;2023-03-18T07:36:07;100675.34;;;10.69;100.00
13015;BME280;6573;57.696;11.950;2023-03-18T07:38:36;100689.34;;;10.74;100.00
13015;BME280;6573;57.696;11.950;2023-03-18T07:41:05;100669.16;;;10.76;100.00
13015;BME280;6573;57.696;11.950;2023-03-18T07:43:34;100683.19;;;10.75;100.00
13015;BME280;6573;57.696;11.950;2023-03-18T07:46:04;100674.44;;;10.70;100.00
13015;BME280;6573;57.696;11.950;2023-03-18T07:48:35;100681.44;;;10.74;100.00
13015;BME280;6573;57.696;11.950;2023-03-18T07:51:04;100665.69;;;10.68;100.00
13015;BME280;6573;57.696;11.950;2023-03-18T07:53:35;100669.13;;;10.77;100.00
13015;BME280;6573;57.696;11.950;2023-03-18T07:56:04;100677.91;;;10.81;100.00
13015;BME280;6573;57.696;11.950;2023-03-18T07:58:33;100677.88;;;10.84;100.00
13015;BME280;6573;57.696;11.950;2023-03-18T08:01:02;100681.38;;;10.89;100.00
13015;BME280;6573;57.696;11.950;2023-03-18T08:03:31;100684.72;;;11.09;100.00
13015;BME280;6573;57.696;11.950;2023-03-18T08:06:00;100672.41;;;11.16;100.00
13015;BME280;6573;57.696;11.950;2023-03-18T08:08:29;100684.66;;;11.21;100.00
13015;BME280;6573;57.696;11.950;2023-03-18T08:10:59;100688.03;;;11.35;100.00
13015;BME280;6573;57.696;11.950;2023-03-18T08:13:28;100684.56;;;11.30;100.00
13015;BME280;6573;57.696;11.950;2023-03-18T08:15:56;100679.38;;;11.21;100.00
13015;BME280;6573;57.696;11.950;2023-03-18T08:18:24;100689.13;;;11.05;100.00
13015;BME280;6573;57.696;11.950;2023-03-18T08:20:54;100693.38;;;11.26;100.00
13015;BME280;6573;57.696;11.950;2023-03-18T08:23:23;100694.31;;;11.21;100.00
13015;BME280;6573;57.696;11.950;2023-03-18T08:25:52;100692.53;;;11.23;100.00
13015;BME280;6573;57.696;11.950;2023-03-18T08:28:20;100689.75;;;11.39;100.00
13015;BME280;6573;57.696;11.950;2023-03-18T08:30:53;100687.00;;;11.56;100.00
13015;BME280;6573;57.696;11.950;2023-03-18T08:33:23;100682.66;;;11.47;100.00
13015;BME280;6573;57.696;11.950;2023-03-18T08:35:54;100691.28;;;11.64;100.00
13015;BME280;6573;57.696;11.950;2023-03-18T08:38:24;100684.25;;;11.63;100.00
13015;BME280;6573;57.696;11.950;2023-03-18T08:40:56;100698.44;;;11.53;100.00
13015;BME280;6573;57.696;11.950;2023-03-18T08:43:28;100694.88;;;11.57;100.00
13015;BME280;6573;57.696;11.950;2023-03-18T08:45:56;100686.19;;;11.48;100.00
13015;BME280;6573;57.696;11.950;2023-03-18T08:48:28;100698.38;;;11.56;100.00
13015;BME280;6573;57.696;11.950;2023-03-18T08:50:58;100700.13;;;11.60;100.00
13015;BME280;6573;57.696;11.950;2023-03-18T08:53:27;100682.53;;;11.59;100.00
13015;BME280;6573;57.696;11.950;2023-03-18T08:58:48;100677.25;;;11.65;100.00
13015;BME280;6573;57.696;11.950;2023-03-18T09:01:18;100691.13;;;11.86;100.00
13015;BME280;6573;57.696;11.950;2023-03-18T09:03:48;100712.31;;;11.74;100.00
13015;BME280;6573;57.696;11.950;2023-03-18T09:06:21;100703.50;;;11.78;100.00
13015;BME280;6573;57.696;11.950;2023-03-18T09:08:49;100703.53;;;11.72;100.00
13015;BME280;6573;57.696;11.950;2023-03-18T09:11:18;100708.81;;;11.72;100.00
13015;BME280;6573;57.696;11.950;2023-03-18T09:13:46;100713.22;;;11.66;100.00
13015;BME280;6573;57.696;11.950;2023-03-18T09:16:15;100715.81;;;11.76;100.00
13015;BME280;6573;57.696;11.950;2023-03-18T09:18:54;100689.41;;;11.79;100.00
13015;BME280;6573;57.696;11.950;2023-03-18T09:21:25;100676.53;;;11.45;100.00
13015;BME280;6573;57.696;11.950;2023-03-18T09:24:07;100722.84;;;11.74;100.00
13015;BME280;6573;57.696;11.950;2023-03-18T09:26:36;100707.91;;;11.74;100.00
13015;BME280;6573;57.696;11.950;2023-03-18T09:29:05;100714.13;;;11.65;100.00
13015;BME280;6573;57.696;11.950;2023-03-18T09:31:36;100720.97;;;11.88;100.00
13015;BME280;6573;57.696;11.950;2023-03-18T09:34:04;100724.47;;;11.90;100.00
13015;BME280;6573;57.696;11.950;2023-03-18T09:36:34;100726.94;;;12.03;100.00
13015;BME280;6573;57.696;11.950;2023-03-18T09:39:02;100734.72;;;12.17;100.00
13015;BME280;6573;57.696;11.950;2023-03-18T09:41:42;100732.91;;;12.22;100.00
13015;BME280;6573;57.696;11.950;2023-03-18T09:44:20;100743.53;;;12.16;100.00
13015;BME280;6573;57.696;11.950;2023-03-18T09:47:12;100748.78;;;12.19;100.00
13015;BME280;6573;57.696;11.950;2023-03-18T09:50:06;100746.97;;;12.21;100.00
13015;BME280;6573;57.696;11.950;2023-03-18T09:52:49;100748.75;;;12.22;100.00
13015;BME280;6573;57.696;11.950;2023-03-18T09:55:23;100752.41;;;12.07;100.00
13015;BME280;6573;57.696;11.950;2023-03-18T09:57:58;100771.69;;;12.14;100.00
13015;BME280;6573;57.696;11.950;2023-03-18T10:00:31;100773.47;;;12.12;100.00
13015;BME280;6573;57.696;11.950;2023-03-18T10:03:03;100765.53;;;12.12;100.00
13015;BME280;6573;57.696;11.950;2023-03-18T10:05:47;100765.50;;;12.16;100.00
13015;BME280;6573;57.696;11.950;2023-03-18T10:08:24;100768.19;;;12.12;100.00
13015;BME280;6573;57.696;11.950;2023-03-18T10:11:16;100769.22;;;11.97;100.00
13015;BME280;6573;57.696;11.950;2023-03-18T10:13:58;100761.38;;;11.90;100.00
13015;BME280;6573;57.696;11.950;2023-03-18T10:16:42;100771.75;;;12.08;100.00
13015;BME280;6573;57.696;11.950;2023-03-18T10:19:14;100767.44;;;11.99;100.00
13015;BME280;6573;57.696;11.950;2023-03-18T10:21:49;100769.13;;;12.05;100.00
13015;BME280;6573;57.696;11.950;2023-03-18T10:24:27;100770.00;;;12.07;100.00
13015;BME280;6573;57.696;11.950;2023-03-18T10:27:06;100775.16;;;12.20;100.00
13015;BME280;6573;57.696;11.950;2023-03-18T10:29:40;100773.56;;;12.03;100.00
13015;BME280;6573;57.696;11.950;2023-03-18T10:32:19;100784.06;;;12.06;100.00
13015;BME280;6573;57.696;11.950;2023-03-18T10:34:57;100771.03;;;11.91;100.00
13015;BME280;6573;57.696;11.950;2023-03-18T10:37:38;100764.94;;;11.83;100.00
13015;BME280;6573;57.696;11.950;2023-03-18T10:40:13;100765.78;;;11.88;100.00
13015;BME280;6573;57.696;11.950;2023-03-18T10:42:43;100765.06;;;11.71;100.00
13015;BME280;6573;57.696;11.950;2023-03-18T10:45:20;100766.63;;;11.90;100.00
13015;BME280;6573;57.696;11.950;2023-03-18T10:47:55;100766.50;;;12.05;100.00
13015;BME280;6573;57.696;11.950;2023-03-18T10:50:30;100762.81;;;12.21;100.00
13015;BME280;6573;57.696;11.950;2023-03-18T10:53:08;100775.16;;;12.20;100.00
13015;BME280;6573;57.696;11.950;2023-03-18T10:55:47;100773.31;;;12.27;100.00
13015;BME280;6573;57.696;11.950;2023-03-18T10:58:18;100770.72;;;12.21;100.00
13015;BME280;6573;57.696;11.950;2023-03-18T11:00:46;100767.09;;;12.32;100.00
13015;BME280;6573;57.696;11.950;2023-03-18T11:03:23;100764.47;;;12.28;100.00
13015;BME280;6573;57.696;11.950;2023-03-18T11:05:55;100757.63;;;12.12;100.00
13015;BME280;6573;57.696;11.950;2023-03-18T11:08:30;100769.88;;;12.19;100.00
13015;BME280;6573;57.696;11.950;2023-03-18T11:11:22;100767.91;;;12.36;100.00
13015;BME280;6573;57.696;11.950;2023-03-18T11:13:53;100762.78;;;12.24;100.00
13015;BME280;6573;57.696;11.950;2023-03-18T11:16:27;100775.72;;;12.47;100.00
13015;BME280;6573;57.696;11.950;2023-03-18T11:18:56;100757.50;;;12.24;100.00
13015;BME280;6573;57.696;11.950;2023-03-18T11:21:28;100772.22;;;12.46;100.00
13015;BME280;6573;57.696;11.950;2023-03-18T11:23:58;100773.03;;;12.51;100.00
13015;BME280;6573;57.696;11.950;2023-03-18T11:26:52;100776.63;;;12.44;100.00
13015;BME280;6573;57.696;11.950;2023-03-18T11:29:26;100778.28;;;12.54;100.00
13015;BME280;6573;57.696;11.950;2023-03-18T11:31:56;100767.56;;;12.66;100.00
13015;BME280;6573;57.696;11.950;2023-03-18T11:34:26;100777.97;;;12.78;100.00
13015;BME280;6573;57.696;11.950;2023-03-18T11:36:56;100753.31;;;12.82;100.00
13015;BME280;6573;57.696;11.950;2023-03-18T11:39:33;100765.41;;;12.98;100.00
13015;BME280;6573;57.696;11.950;2023-03-18T11:42:16;100777.59;;;13.12;100.00
13015;BME280;6573;57.696;11.950;2023-03-18T11:44:50;100779.41;;;13.07;100.00
13015;BME280;6573;57.696;11.950;2023-03-18T11:47:26;100770.69;;;12.98;100.00
13015;BME280;6573;57.696;11.950;2023-03-18T11:49:56;100777.72;;;12.99;100.00
13015;BME280;6573;57.696;11.950;2023-03-18T11:52:30;100789.19;;;12.97;100.00
13015;BME280;6573;57.696;11.950;2023-03-18T11:55:20;100780.09;;;12.49;100.00
13015;BME280;6573;57.696;11.950;2023-03-18T11:58:29;100790.81;;;12.34;100.00
13015;BME280;6573;57.696;11.950;2023-03-18T12:01:09;100788.56;;;12.75;100.00
13015;BME280;6573;57.696;11.950;2023-03-18T12:07:02;100793.34;;;12.45;100.00
13015;BME280;6573;57.696;11.950;2023-03-18T12:09:38;100784.50;;;12.49;100.00
13015;BME280;6573;57.696;11.950;2023-03-18T12:12:21;100797.56;;;12.59;100.00
13015;BME280;6573;57.696;11.950;2023-03-18T12:15:03;100763.38;;;12.50;100.00
13015;BME280;6573;57.696;11.950;2023-03-18T12:17:41;100793.91;;;12.72;100.00
13015;BME280;6573;57.696;11.950;2023-03-18T12:20:40;100796.59;;;12.69;100.00
13015;BME280;6573;57.696;11.950;2023-03-18T12:23:28;100788.47;;;12.84;100.00
13015;BME280;6573;57.696;11.950;2023-03-18T12:26:02;100797.09;;;12.98;100.00
13015;BME280;6573;57.696;11.950;2023-03-18T12:28:44;100807.56;;;13.08;100.00
13015;BME280;6573;57.696;11.950;2023-03-18T12:34:39;100807.53;;;13.12;100.00
13015;BME280;6573;57.696;11.950;2023-03-18T12:37:22;100801.47;;;13.01;100.00
13015;BME280;6573;57.696;11.950;2023-03-18T12:40:06;100797.19;;;12.91;100.00
13015;BME280;6573;57.696;11.950;2023-03-18T12:42:50;100784.09;;;12.80;100.00
13015;BME280;6573;57.696;11.950;2023-03-18T12:45:25;100798.88;;;12.96;100.00
13015;BME280;6573;57.696;11.950;2023-03-18T12:47:58;100795.31;;;12.97;100.00
13015;BME280;6573;57.696;11.950;2023-03-18T12:50:33;100797.06;;;13.02;100.00
13015;BME280;6573;57.696;11.950;2023-03-18T12:53:10;100797.00;;;13.08;100.00
13015;BME280;6573;57.696;11.950;2023-03-18T12:55:44;100793.47;;;13.06;100.00
13015;BME280;6573;57.696;11.950;2023-03-18T12:58:15;100797.88;;;13.10;100.00
13015;BME280;6573;57.696;11.950;2023-03-18T13:00:48;100800.38;;;13.19;100.00
13015;BME280;6573;57.696;11.950;2023-03-18T13:03:29;100797.78;;;13.17;100.00
13015;BME280;6573;57.696;11.950;2023-03-18T13:06:04;100803.97;;;13.15;100.00
13015;BME280;6573;57.696;11.950;2023-03-18T13:08:44;100796.78;;;13.23;100.00
13015;BME280;6573;57.696;11.950;2023-03-18T13:11:30;100810.22;;;13.05;100.00
13015;BME280;6573;57.696;11.950;2023-03-18T13:14:04;100797.06;;;13.02;100.00
13015;BME280;6573;57.696;11.950;2023-03-18T13:16:34;100797.13;;;12.95;100.00